Terminal Aerodrome Forecast
Issued by NWS

Current Version | Previous Version | Text Only | Print | Product List | Glossary On
Versions: 1 2 3 4 5 6 7 8 9 10 11 12 13 14 15 16
009
FTUS46 KSEW 230520
TAFPAE
TAF
KPAE 230520Z 2306/2406 12008KT P6SM SCT030 SCT150
     FM230700 15008KT P6SM SCT050 BKN150
     FM231300 14011G18KT P6SM -RA SCT030 OVC040
     FM232200 16015G25KT P6SM -RA SCT020 OVC030
     FM240200 16015G25KT 6SM -RA BR SCT010 OVC020=

USA.gov is the U.S. government's official web portal to all federal, state and local government web resources and services.